sensor_id;sensor_type;location;lat;lon;timestamp;P1;durP1;ratioP1;P2;durP2;ratioP2
33840;SDS011;20142;28.494;-16.312;2023-02-05T00:00:09;56.33;;;20.27;;
33840;SDS011;20142;28.494;-16.312;2023-02-05T00:05:11;26.52;;;8.95;;
33840;SDS011;20142;28.494;-16.312;2023-02-05T00:10:13;23.15;;;9.20;;
33840;SDS011;20142;28.494;-16.312;2023-02-05T00:15:16;35.95;;;15.15;;
33840;SDS011;20142;28.494;-16.312;2023-02-05T00:20:18;24.13;;;11.02;;
33840;SDS011;20142;28.494;-16.312;2023-02-05T00:25:19;23.42;;;10.38;;
33840;SDS011;20142;28.494;-16.312;2023-02-05T00:30:21;12.73;;;6.07;;
33840;SDS011;20142;28.494;-16.312;2023-02-05T00:35:23;20.83;;;9.15;;
33840;SDS011;20142;28.494;-16.312;2023-02-05T00:40:24;30.90;;;12.95;;
33840;SDS011;20142;28.494;-16.312;2023-02-05T00:45:26;12.43;;;4.40;;
33840;SDS011;20142;28.494;-16.312;2023-02-05T00:50:34;10.68;;;4.13;;
33840;SDS011;20142;28.494;-16.312;2023-02-05T00:55:36;14.32;;;5.72;;
33840;SDS011;20142;28.494;-16.312;2023-02-05T01:00:37;15.93;;;7.03;;
33840;SDS011;20142;28.494;-16.312;2023-02-05T01:05:39;14.80;;;6.90;;
33840;SDS011;20142;28.494;-16.312;2023-02-05T01:10:42;14.98;;;7.20;;
33840;SDS011;20142;28.494;-16.312;2023-02-05T01:15:48;8.45;;;2.97;;
33840;SDS011;20142;28.494;-16.312;2023-02-05T01:20:50;6.57;;;2.88;;
33840;SDS011;20142;28.494;-16.312;2023-02-05T01:25:52;5.97;;;2.70;;
33840;SDS011;20142;28.494;-16.312;2023-02-05T01:30:53;9.18;;;2.88;;
33840;SDS011;20142;28.494;-16.312;2023-02-05T01:35:55;7.85;;;3.13;;
33840;SDS011;20142;28.494;-16.312;2023-02-05T01:40:57;8.75;;;3.30;;
33840;SDS011;20142;28.494;-16.312;2023-02-05T01:46:02;6.95;;;2.80;;
33840;SDS011;20142;28.494;-16.312;2023-02-05T01:51:16;8.10;;;2.03;;
33840;SDS011;20142;28.494;-16.312;2023-02-05T01:56:22;6.60;;;2.33;;
33840;SDS011;20142;28.494;-16.312;2023-02-05T02:01:30;8.35;;;1.40;;
33840;SDS011;20142;28.494;-16.312;2023-02-05T02:06:34;7.22;;;1.25;;
33840;SDS011;20142;28.494;-16.312;2023-02-05T02:11:37;8.85;;;1.67;;
33840;SDS011;20142;28.494;-16.312;2023-02-05T02:16:42;4.53;;;1.42;;
33840;SDS011;20142;28.494;-16.312;2023-02-05T02:21:50;4.68;;;1.15;;
33840;SDS011;20142;28.494;-16.312;2023-02-05T02:27:43;4.03;;;1.13;;
33840;SDS011;20142;28.494;-16.312;2023-02-05T02:33:05;3.83;;;0.90;;
33840;SDS011;20142;28.494;-16.312;2023-02-05T02:43:46;4.63;;;0.70;;
33840;SDS011;20142;28.494;-16.312;2023-02-05T02:48:53;3.88;;;0.80;;
33840;SDS011;20142;28.494;-16.312;2023-02-05T02:53:58;5.53;;;1.00;;
33840;SDS011;20142;28.494;-16.312;2023-02-05T02:59:10;3.30;;;0.88;;
33840;SDS011;20142;28.494;-16.312;2023-02-05T03:04:23;6.65;;;0.95;;
33840;SDS011;20142;28.494;-16.312;2023-02-05T03:09:59;5.88;;;1.13;;
33840;SDS011;20142;28.494;-16.312;2023-02-05T03:15:05;3.13;;;1.00;;
33840;SDS011;20142;28.494;-16.312;2023-02-05T03:20:16;3.10;;;1.23;;
33840;SDS011;20142;28.494;-16.312;2023-02-05T03:30:33;4.55;;;0.90;;
33840;SDS011;20142;28.494;-16.312;2023-02-05T03:47:04;11.85;;;1.60;;
33840;SDS011;20142;28.494;-16.312;2023-02-05T03:52:33;7.15;;;1.20;;
33840;SDS011;20142;28.494;-16.312;2023-02-05T04:02:58;6.78;;;1.90;;
33840;SDS011;20142;28.494;-16.312;2023-02-05T04:08:00;3.67;;;1.20;;
33840;SDS011;20142;28.494;-16.312;2023-02-05T04:13:01;6.97;;;1.35;;
33840;SDS011;20142;28.494;-16.312;2023-02-05T04:18:03;6.57;;;2.00;;
33840;SDS011;20142;28.494;-16.312;2023-02-05T04:23:05;6.13;;;1.40;;
33840;SDS011;20142;28.494;-16.312;2023-02-05T04:28:08;6.25;;;1.48;;
33840;SDS011;20142;28.494;-16.312;2023-02-05T04:33:10;4.47;;;1.38;;
33840;SDS011;20142;28.494;-16.312;2023-02-05T04:38:12;7.88;;;1.60;;
33840;SDS011;20142;28.494;-16.312;2023-02-05T04:43:13;7.65;;;1.50;;
33840;SDS011;20142;28.494;-16.312;2023-02-05T04:48:15;6.07;;;1.50;;
33840;SDS011;20142;28.494;-16.312;2023-02-05T04:53:17;4.13;;;1.27;;
33840;SDS011;20142;28.494;-16.312;2023-02-05T04:58:19;4.70;;;1.60;;
33840;SDS011;20142;28.494;-16.312;2023-02-05T05:03:21;4.95;;;1.40;;
33840;SDS011;20142;28.494;-16.312;2023-02-05T05:08:22;5.55;;;1.25;;
33840;SDS011;20142;28.494;-16.312;2023-02-05T05:13:24;5.88;;;1.80;;
33840;SDS011;20142;28.494;-16.312;2023-02-05T05:18:26;10.45;;;2.05;;
33840;SDS011;20142;28.494;-16.312;2023-02-05T05:23:28;6.35;;;1.70;;
33840;SDS011;20142;28.494;-16.312;2023-02-05T05:28:30;4.60;;;1.40;;
33840;SDS011;20142;28.494;-16.312;2023-02-05T05:33:34;7.43;;;1.52;;
33840;SDS011;20142;28.494;-16.312;2023-02-05T05:38:37;10.02;;;1.55;;
33840;SDS011;20142;28.494;-16.312;2023-02-05T05:43:39;4.40;;;1.30;;
33840;SDS011;20142;28.494;-16.312;2023-02-05T05:48:48;5.68;;;1.40;;
33840;SDS011;20142;28.494;-16.312;2023-02-05T05:53:55;11.55;;;1.70;;
33840;SDS011;20142;28.494;-16.312;2023-02-05T05:58:57;5.43;;;1.48;;
33840;SDS011;20142;28.494;-16.312;2023-02-05T06:03:59;3.00;;;1.25;;
33840;SDS011;20142;28.494;-16.312;2023-02-05T06:09:01;5.57;;;1.58;;
33840;SDS011;20142;28.494;-16.312;2023-02-05T06:14:02;9.00;;;1.63;;
33840;SDS011;20142;28.494;-16.312;2023-02-05T06:19:04;6.35;;;1.63;;
33840;SDS011;20142;28.494;-16.312;2023-02-05T06:24:06;9.75;;;1.98;;
33840;SDS011;20142;28.494;-16.312;2023-02-05T06:29:07;4.18;;;1.50;;
33840;SDS011;20142;28.494;-16.312;2023-02-05T06:34:09;5.65;;;1.70;;
33840;SDS011;20142;28.494;-16.312;2023-02-05T06:39:11;6.95;;;2.20;;
33840;SDS011;20142;28.494;-16.312;2023-02-05T06:44:12;6.50;;;1.73;;
33840;SDS011;20142;28.494;-16.312;2023-02-05T06:49:14;6.80;;;1.80;;
33840;SDS011;20142;28.494;-16.312;2023-02-05T06:54:16;9.48;;;1.92;;
33840;SDS011;20142;28.494;-16.312;2023-02-05T06:59:17;6.95;;;1.90;;
33840;SDS011;20142;28.494;-16.312;2023-02-05T07:04:19;9.95;;;1.70;;
33840;SDS011;20142;28.494;-16.312;2023-02-05T07:09:21;8.90;;;1.77;;
33840;SDS011;20142;28.494;-16.312;2023-02-05T07:14:23;5.47;;;1.77;;
33840;SDS011;20142;28.494;-16.312;2023-02-05T07:19:24;8.43;;;1.80;;
33840;SDS011;20142;28.494;-16.312;2023-02-05T07:24:26;9.20;;;1.70;;
33840;SDS011;20142;28.494;-16.312;2023-02-05T07:29:28;6.60;;;1.90;;
33840;SDS011;20142;28.494;-16.312;2023-02-05T07:34:29;7.72;;;2.13;;
33840;SDS011;20142;28.494;-16.312;2023-02-05T07:39:31;9.35;;;2.40;;
33840;SDS011;20142;28.494;-16.312;2023-02-05T07:44:33;6.68;;;2.33;;
33840;SDS011;20142;28.494;-16.312;2023-02-05T07:49:34;9.73;;;2.53;;
33840;SDS011;20142;28.494;-16.312;2023-02-05T07:54:36;14.68;;;3.33;;
33840;SDS011;20142;28.494;-16.312;2023-02-05T07:59:38;9.20;;;2.70;;
33840;SDS011;20142;28.494;-16.312;2023-02-05T08:04:40;9.32;;;3.22;;
33840;SDS011;20142;28.494;-16.312;2023-02-05T08:09:41;9.15;;;3.55;;
33840;SDS011;20142;28.494;-16.312;2023-02-05T08:14:43;6.68;;;2.67;;
33840;SDS011;20142;28.494;-16.312;2023-02-05T08:19:45;11.40;;;3.05;;
33840;SDS011;20142;28.494;-16.312;2023-02-05T08:24:46;14.80;;;3.08;;
33840;SDS011;20142;28.494;-16.312;2023-02-05T08:29:48;8.20;;;2.78;;
33840;SDS011;20142;28.494;-16.312;2023-02-05T08:34:50;13.05;;;2.38;;
33840;SDS011;20142;28.494;-16.312;2023-02-05T08:39:51;8.50;;;2.80;;
33840;SDS011;20142;28.494;-16.312;2023-02-05T08:44:53;16.70;;;4.35;;
33840;SDS011;20142;28.494;-16.312;2023-02-05T08:49:58;8.55;;;2.80;;
33840;SDS011;20142;28.494;-16.312;2023-02-05T08:54:59;10.23;;;3.17;;
33840;SDS011;20142;28.494;-16.312;2023-02-05T09:00:02;7.72;;;2.90;;
33840;SDS011;20142;28.494;-16.312;2023-02-05T09:05:05;8.80;;;3.00;;
33840;SDS011;20142;28.494;-16.312;2023-02-05T09:10:08;9.02;;;3.00;;
33840;SDS011;20142;28.494;-16.312;2023-02-05T09:15:12;10.52;;;3.45;;
33840;SDS011;20142;28.494;-16.312;2023-02-05T09:20:13;14.45;;;3.88;;
33840;SDS011;20142;28.494;-16.312;2023-02-05T09:25:15;14.13;;;2.78;;
33840;SDS011;20142;28.494;-16.312;2023-02-05T09:30:17;20.63;;;8.15;;
33840;SDS011;20142;28.494;-16.312;2023-02-05T09:35:18;16.60;;;5.30;;
33840;SDS011;20142;28.494;-16.312;2023-02-05T09:40:21;12.35;;;3.83;;
33840;SDS011;20142;28.494;-16.312;2023-02-05T09:45:49;16.08;;;2.80;;
33840;SDS011;20142;28.494;-16.312;2023-02-05T09:50:56;13.35;;;2.40;;
33840;SDS011;20142;28.494;-16.312;2023-02-05T09:55:59;13.35;;;1.75;;
33840;SDS011;20142;28.494;-16.312;2023-02-05T10:01:11;12.98;;;1.75;;
33840;SDS011;20142;28.494;-16.312;2023-02-05T10:06:52;13.20;;;1.70;;
33840;SDS011;20142;28.494;-16.312;2023-02-05T10:23:12;16.30;;;1.90;;
33840;SDS011;20142;28.494;-16.312;2023-02-05T10:28:23;9.95;;;1.83;;
33840;SDS011;20142;28.494;-16.312;2023-02-05T10:33:50;13.52;;;2.53;;
33840;SDS011;20142;28.494;-16.312;2023-02-05T10:38:56;10.82;;;1.63;;
33840;SDS011;20142;28.494;-16.312;2023-02-05T10:44:02;12.05;;;1.90;;
33840;SDS011;20142;28.494;-16.312;2023-02-05T10:54:58;11.50;;;2.30;;
33840;SDS011;20142;28.494;-16.312;2023-02-05T11:00:05;12.63;;;1.88;;
33840;SDS011;20142;28.494;-16.312;2023-02-05T11:05:35;12.20;;;1.60;;
33840;SDS011;20142;28.494;-16.312;2023-02-05T11:10:40;9.23;;;2.17;;
33840;SDS011;20142;28.494;-16.312;2023-02-05T11:15:54;14.50;;;2.67;;
33840;SDS011;20142;28.494;-16.312;2023-02-05T11:21:03;8.57;;;2.00;;
33840;SDS011;20142;28.494;-16.312;2023-02-05T11:26:21;12.90;;;2.60;;
33840;SDS011;20142;28.494;-16.312;2023-02-05T11:31:26;14.55;;;2.67;;
33840;SDS011;20142;28.494;-16.312;2023-02-05T11:36:32;12.77;;;2.42;;
33840;SDS011;20142;28.494;-16.312;2023-02-05T11:41:39;12.68;;;2.28;;
33840;SDS011;20142;28.494;-16.312;2023-02-05T11:47:00;13.27;;;3.15;;
33840;SDS011;20142;28.494;-16.312;2023-02-05T11:52:11;8.75;;;2.08;;
33840;SDS011;20142;28.494;-16.312;2023-02-05T12:07:31;20.55;;;2.80;;
33840;SDS011;20142;28.494;-16.312;2023-02-05T12:12:53;16.33;;;2.70;;
33840;SDS011;20142;28.494;-16.312;2023-02-05T12:34:35;15.85;;;2.67;;
33840;SDS011;20142;28.494;-16.312;2023-02-05T12:40:27;20.58;;;3.15;;
33840;SDS011;20142;28.494;-16.312;2023-02-05T12:57:17;17.83;;;2.60;;
33840;SDS011;20142;28.494;-16.312;2023-02-05T13:02:28;11.30;;;2.15;;
33840;SDS011;20142;28.494;-16.312;2023-02-05T13:13:16;7.47;;;1.15;;
33840;SDS011;20142;28.494;-16.312;2023-02-05T13:18:40;5.03;;;0.80;;
33840;SDS011;20142;28.494;-16.312;2023-02-05T13:23:46;7.70;;;1.00;;
33840;SDS011;20142;28.494;-16.312;2023-02-05T13:29:08;3.10;;;0.90;;
33840;SDS011;20142;28.494;-16.312;2023-02-05T13:34:13;4.85;;;1.42;;
33840;SDS011;20142;28.494;-16.312;2023-02-05T13:50:54;13.10;;;2.72;;
33840;SDS011;20142;28.494;-16.312;2023-02-05T14:01:55;13.40;;;2.40;;
33840;SDS011;20142;28.494;-16.312;2023-02-05T14:07:02;12.00;;;2.50;;
33840;SDS011;20142;28.494;-16.312;2023-02-05T14:12:11;10.75;;;2.80;;
33840;SDS011;20142;28.494;-16.312;2023-02-05T14:22:46;19.27;;;3.05;;
33840;SDS011;20142;28.494;-16.312;2023-02-05T14:27:48;18.80;;;2.40;;
33840;SDS011;20142;28.494;-16.312;2023-02-05T14:37:53;16.95;;;2.42;;
33840;SDS011;20142;28.494;-16.312;2023-02-05T14:43:10;12.07;;;2.50;;
33840;SDS011;20142;28.494;-16.312;2023-02-05T14:48:27;15.65;;;2.75;;
33840;SDS011;20142;28.494;-16.312;2023-02-05T14:53:33;16.08;;;2.80;;
33840;SDS011;20142;28.494;-16.312;2023-02-05T14:58:37;13.43;;;3.08;;
33840;SDS011;20142;28.494;-16.312;2023-02-05T15:03:43;14.13;;;2.38;;
33840;SDS011;20142;28.494;-16.312;2023-02-05T15:08:50;17.85;;;2.85;;
33840;SDS011;20142;28.494;-16.312;2023-02-05T15:19:20;9.73;;;2.93;;
33840;SDS011;20142;28.494;-16.312;2023-02-05T15:24:22;11.05;;;1.88;;
33840;SDS011;20142;28.494;-16.312;2023-02-05T15:29:36;13.23;;;2.30;;
33840;SDS011;20142;28.494;-16.312;2023-02-05T15:40:19;12.32;;;2.55;;
33840;SDS011;20142;28.494;-16.312;2023-02-05T15:45:26;11.15;;;2.17;;
33840;SDS011;20142;28.494;-16.312;2023-02-05T15:50:31;15.18;;;2.90;;
33840;SDS011;20142;28.494;-16.312;2023-02-05T15:56:04;17.67;;;3.20;;
33840;SDS011;20142;28.494;-16.312;2023-02-05T16:01:21;12.60;;;2.42;;
33840;SDS011;20142;28.494;-16.312;2023-02-05T16:06:34;10.07;;;2.47;;
33840;SDS011;20142;28.494;-16.312;2023-02-05T16:11:36;14.50;;;2.75;;
33840;SDS011;20142;28.494;-16.312;2023-02-05T16:16:51;21.40;;;3.10;;
33840;SDS011;20142;28.494;-16.312;2023-02-05T16:27:40;20.60;;;3.35;;
33840;SDS011;20142;28.494;-16.312;2023-02-05T16:32:48;13.30;;;2.80;;
33840;SDS011;20142;28.494;-16.312;2023-02-05T16:37:54;25.20;;;3.55;;
33840;SDS011;20142;28.494;-16.312;2023-02-05T16:42:57;15.45;;;3.40;;
33840;SDS011;20142;28.494;-16.312;2023-02-05T16:53:26;11.10;;;2.60;;
33840;SDS011;20142;28.494;-16.312;2023-02-05T16:58:34;9.82;;;2.22;;
33840;SDS011;20142;28.494;-16.312;2023-02-05T17:03:44;18.05;;;2.97;;
33840;SDS011;20142;28.494;-16.312;2023-02-05T17:08:50;15.15;;;2.90;;
33840;SDS011;20142;28.494;-16.312;2023-02-05T17:14:12;19.67;;;3.45;;
33840;SDS011;20142;28.494;-16.312;2023-02-05T17:19:32;14.25;;;3.63;;
33840;SDS011;20142;28.494;-16.312;2023-02-05T17:24:34;15.98;;;3.00;;
33840;SDS011;20142;28.494;-16.312;2023-02-05T17:29:35;18.33;;;3.25;;
33840;SDS011;20142;28.494;-16.312;2023-02-05T17:34:38;15.43;;;2.88;;
33840;SDS011;20142;28.494;-16.312;2023-02-05T17:39:39;15.38;;;3.20;;
33840;SDS011;20142;28.494;-16.312;2023-02-05T17:44:42;15.75;;;2.85;;
33840;SDS011;20142;28.494;-16.312;2023-02-05T17:49:45;23.33;;;3.20;;
33840;SDS011;20142;28.494;-16.312;2023-02-05T17:54:47;17.73;;;3.03;;
33840;SDS011;20142;28.494;-16.312;2023-02-05T17:59:49;19.05;;;3.30;;
33840;SDS011;20142;28.494;-16.312;2023-02-05T18:04:51;21.48;;;3.60;;
33840;SDS011;20142;28.494;-16.312;2023-02-05T18:09:53;24.55;;;3.50;;
33840;SDS011;20142;28.494;-16.312;2023-02-05T18:14:54;22.90;;;3.30;;
33840;SDS011;20142;28.494;-16.312;2023-02-05T18:19:56;18.38;;;3.63;;
33840;SDS011;20142;28.494;-16.312;2023-02-05T18:24:58;20.00;;;3.40;;
33840;SDS011;20142;28.494;-16.312;2023-02-05T18:30:00;26.38;;;3.45;;
33840;SDS011;20142;28.494;-16.312;2023-02-05T18:41:03;20.58;;;3.10;;
33840;SDS011;20142;28.494;-16.312;2023-02-05T18:46:13;18.20;;;2.80;;
33840;SDS011;20142;28.494;-16.312;2023-02-05T18:51:18;22.35;;;2.88;;
33840;SDS011;20142;28.494;-16.312;2023-02-05T18:56:23;23.63;;;3.15;;
33840;SDS011;20142;28.494;-16.312;2023-02-05T19:01:27;19.52;;;3.38;;
33840;SDS011;20142;28.494;-16.312;2023-02-05T19:06:31;22.38;;;2.53;;
33840;SDS011;20142;28.494;-16.312;2023-02-05T19:11:33;28.38;;;4.60;;
33840;SDS011;20142;28.494;-16.312;2023-02-05T19:16:40;29.67;;;6.00;;
33840;SDS011;20142;28.494;-16.312;2023-02-05T19:21:43;24.08;;;4.10;;
33840;SDS011;20142;28.494;-16.312;2023-02-05T19:26:44;25.30;;;4.45;;
33840;SDS011;20142;28.494;-16.312;2023-02-05T19:31:49;23.85;;;3.40;;
33840;SDS011;20142;28.494;-16.312;2023-02-05T19:36:53;21.63;;;4.13;;
33840;SDS011;20142;28.494;-16.312;2023-02-05T19:41:54;24.02;;;4.45;;
33840;SDS011;20142;28.494;-16.312;2023-02-05T19:46:56;32.50;;;5.95;;
33840;SDS011;20142;28.494;-16.312;2023-02-05T19:51:58;26.27;;;5.72;;
33840;SDS011;20142;28.494;-16.312;2023-02-05T19:57:01;33.28;;;7.53;;
33840;SDS011;20142;28.494;-16.312;2023-02-05T20:02:02;31.33;;;7.72;;
33840;SDS011;20142;28.494;-16.312;2023-02-05T20:07:04;28.40;;;5.65;;
33840;SDS011;20142;28.494;-16.312;2023-02-05T20:12:06;23.80;;;6.15;;
33840;SDS011;20142;28.494;-16.312;2023-02-05T20:17:08;28.38;;;6.72;;
33840;SDS011;20142;28.494;-16.312;2023-02-05T20:22:15;33.88;;;8.40;;
33840;SDS011;20142;28.494;-16.312;2023-02-05T20:27:18;28.35;;;9.45;;
33840;SDS011;20142;28.494;-16.312;2023-02-05T20:32:20;37.70;;;7.00;;
33840;SDS011;20142;28.494;-16.312;2023-02-05T20:37:21;36.20;;;8.43;;
33840;SDS011;20142;28.494;-16.312;2023-02-05T20:42:23;31.48;;;9.15;;
33840;SDS011;20142;28.494;-16.312;2023-02-05T20:47:25;36.38;;;8.05;;
33840;SDS011;20142;28.494;-16.312;2023-02-05T20:52:27;19.85;;;4.40;;
33840;SDS011;20142;28.494;-16.312;2023-02-05T20:57:28;25.85;;;3.78;;
33840;SDS011;20142;28.494;-16.312;2023-02-05T21:02:31;19.73;;;3.25;;
33840;SDS011;20142;28.494;-16.312;2023-02-05T21:07:33;26.85;;;4.25;;
33840;SDS011;20142;28.494;-16.312;2023-02-05T21:12:36;21.73;;;4.00;;
33840;SDS011;20142;28.494;-16.312;2023-02-05T21:17:38;25.40;;;3.85;;
33840;SDS011;20142;28.494;-16.312;2023-02-05T21:22:41;18.88;;;3.10;;
33840;SDS011;20142;28.494;-16.312;2023-02-05T21:27:42;23.73;;;4.70;;
33840;SDS011;20142;28.494;-16.312;2023-02-05T21:32:44;20.15;;;4.93;;
33840;SDS011;20142;28.494;-16.312;2023-02-05T21:37:46;19.48;;;5.20;;
33840;SDS011;20142;28.494;-16.312;2023-02-05T21:42:47;32.78;;;5.38;;
33840;SDS011;20142;28.494;-16.312;2023-02-05T21:47:49;21.15;;;5.63;;
33840;SDS011;20142;28.494;-16.312;2023-02-05T21:52:52;21.35;;;5.43;;
33840;SDS011;20142;28.494;-16.312;2023-02-05T21:57:54;18.92;;;5.00;;
33840;SDS011;20142;28.494;-16.312;2023-02-05T22:02:56;22.52;;;6.43;;
33840;SDS011;20142;28.494;-16.312;2023-02-05T22:07:58;28.17;;;6.85;;
33840;SDS011;20142;28.494;-16.312;2023-02-05T22:13:00;21.85;;;6.30;;
33840;SDS011;20142;28.494;-16.312;2023-02-05T22:18:01;37.90;;;8.23;;
33840;SDS011;20142;28.494;-16.312;2023-02-05T22:23:03;30.30;;;9.32;;
33840;SDS011;20142;28.494;-16.312;2023-02-05T22:28:05;35.42;;;11.20;;
33840;SDS011;20142;28.494;-16.312;2023-02-05T22:33:06;27.05;;;9.18;;
33840;SDS011;20142;28.494;-16.312;2023-02-05T22:38:08;29.42;;;9.05;;
33840;SDS011;20142;28.494;-16.312;2023-02-05T22:43:09;26.70;;;8.32;;
33840;SDS011;20142;28.494;-16.312;2023-02-05T22:48:11;31.20;;;8.40;;
33840;SDS011;20142;28.494;-16.312;2023-02-05T22:53:13;27.00;;;8.23;;
33840;SDS011;20142;28.494;-16.312;2023-02-05T22:58:15;31.80;;;9.70;;
33840;SDS011;20142;28.494;-16.312;2023-02-05T23:03:16;29.55;;;9.32;;
33840;SDS011;20142;28.494;-16.312;2023-02-05T23:08:18;30.38;;;10.43;;
33840;SDS011;20142;28.494;-16.312;2023-02-05T23:13:19;27.27;;;8.23;;
33840;SDS011;20142;28.494;-16.312;2023-02-05T23:18:21;24.60;;;7.38;;
33840;SDS011;20142;28.494;-16.312;2023-02-05T23:23:23;23.08;;;7.32;;
33840;SDS011;20142;28.494;-16.312;2023-02-05T23:28:24;33.65;;;9.27;;
33840;SDS011;20142;28.494;-16.312;2023-02-05T23:33:26;31.45;;;10.02;;
33840;SDS011;20142;28.494;-16.312;2023-02-05T23:38:29;30.48;;;10.93;;
33840;SDS011;20142;28.494;-16.312;2023-02-05T23:43:31;26.67;;;11.02;;
33840;SDS011;20142;28.494;-16.312;2023-02-05T23:48:35;39.30;;;9.40;;
33840;SDS011;20142;28.494;-16.312;2023-02-05T23:53:36;36.03;;;11.35;;
33840;SDS011;20142;28.494;-16.312;2023-02-05T23:58:38;35.15;;;11.73;;
